createdAt,value
2023-05-10T00:00:07.403Z,30.95
2023-05-10T00:01:07.417Z,31.56
2023-05-10T00:02:07.514Z,26.30
2023-05-10T00:03:07.543Z,27.49
2023-05-10T00:04:07.517Z,33.21
2023-05-10T00:05:07.511Z,29.17
2023-05-10T00:06:07.511Z,27.06
2023-05-10T00:07:07.533Z,29.39
2023-05-10T00:08:07.590Z,28.32
2023-05-10T00:09:07.617Z,29.54
2023-05-10T00:10:07.687Z,32.47
2023-05-10T00:11:07.688Z,28.96
2023-05-10T00:12:07.733Z,30.15
2023-05-10T00:13:07.709Z,29.59
2023-05-10T00:14:07.728Z,28.21
2023-05-10T00:15:07.772Z,29.53
2023-05-10T00:16:07.891Z,29.25
2023-05-10T00:17:07.817Z,27.56
2023-05-10T00:18:07.935Z,31.96
2023-05-10T00:19:07.911Z,31.19
2023-05-10T00:20:07.940Z,29.98
2023-05-10T00:21:07.949Z,29.18
2023-05-10T00:22:07.979Z,30.87
2023-05-10T00:23:07.981Z,27.72
2023-05-10T00:24:08.015Z,31.04
2023-05-10T00:25:08.081Z,27.81
2023-05-10T00:26:08.042Z,26.19
2023-05-10T00:27:08.088Z,26.47
2023-05-10T00:28:08.119Z,29.58
2023-05-10T00:29:08.171Z,27.60
2023-05-10T00:30:08.227Z,26.75
2023-05-10T00:31:08.209Z,26.58
2023-05-10T00:32:08.291Z,28.43
2023-05-10T00:33:08.237Z,28.57
2023-05-10T00:34:08.290Z,27.38
2023-05-10T00:35:08.271Z,28.09
2023-05-10T00:36:08.286Z,28.52
2023-05-10T00:37:08.319Z,31.81
2023-05-10T00:38:08.436Z,28.03
2023-05-10T00:39:08.489Z,27.57
2023-05-10T00:40:08.400Z,28.74
2023-05-10T00:41:08.421Z,29.47
2023-05-10T00:42:08.443Z,28.59
2023-05-10T00:43:08.495Z,28.08
2023-05-10T00:44:08.576Z,29.24
2023-05-10T00:45:08.555Z,32.40
2023-05-10T00:46:08.599Z,28.68
2023-05-10T00:47:08.585Z,29.30
2023-05-10T00:48:08.645Z,29.95
2023-05-10T00:49:08.652Z,30.11
2023-05-10T00:50:08.678Z,30.06
2023-05-10T00:51:08.754Z,28.92
2023-05-10T00:52:08.750Z,30.94
2023-05-10T00:53:08.747Z,27.41
2023-05-10T00:54:08.854Z,31.05
2023-05-10T00:55:08.832Z,29.64
2023-05-10T00:56:08.858Z,27.83
2023-05-10T00:57:08.887Z,29.04
2023-05-10T00:58:08.978Z,30.95
2023-05-10T00:59:08.971Z,30.98
2023-05-10T01:00:08.985Z,33.31
2023-05-10T01:01:09.009Z,28.93
2023-05-10T01:02:09.072Z,25.47
2023-05-10T01:03:09.167Z,30.70
2023-05-10T01:04:09.153Z,26.14
2023-05-10T01:05:09.227Z,31.65
2023-05-10T01:06:09.148Z,30.45
2023-05-10T01:07:09.199Z,28.63
2023-05-10T01:08:09.256Z,26.96
2023-05-10T01:09:09.280Z,27.18
2023-05-10T01:10:09.313Z,25.00
2023-05-10T01:11:09.343Z,29.70
2023-05-10T01:12:09.317Z,29.29
2023-05-10T01:13:09.363Z,29.93
2023-05-10T01:14:09.397Z,28.55
2023-05-10T01:15:09.421Z,28.76
2023-05-10T01:16:09.530Z,30.49
2023-05-10T01:17:09.447Z,28.54
2023-05-10T01:18:09.463Z,26.26
2023-05-10T01:28:24.648Z,25.00
2023-05-10T01:29:24.491Z,25.00
2023-05-10T01:30:24.609Z,25.00
2023-05-10T01:31:24.549Z,25.00
2023-05-10T01:32:24.639Z,25.00
2023-05-10T01:33:24.427Z,24.17
2023-05-10T01:34:24.391Z,27.14
2023-05-10T01:35:24.379Z,25.14
2023-05-10T01:36:24.405Z,25.00
2023-05-10T01:37:24.375Z,25.00
2023-05-10T01:38:24.391Z,25.00
2023-05-10T01:39:24.378Z,25.00
2023-05-10T01:40:24.359Z,27.56
2023-05-10T01:41:24.343Z,26.61
2023-05-10T01:42:24.407Z,25.56
2023-05-10T01:43:24.335Z,29.30
2023-05-10T01:44:24.337Z,28.20
2023-05-10T01:45:24.310Z,25.45
2023-05-10T01:46:24.339Z,25.00
2023-05-10T01:47:24.359Z,28.15
2023-05-10T01:48:24.319Z,25.00
2023-05-10T01:49:24.284Z,27.82
2023-05-10T01:50:24.275Z,26.04
2023-05-10T01:51:24.260Z,26.07
2023-05-10T01:52:24.293Z,27.18
2023-05-10T01:53:24.269Z,28.88
2023-05-10T01:54:24.292Z,28.35
2023-05-10T01:55:24.233Z,28.53
2023-05-10T01:56:24.257Z,27.10
2023-05-10T01:57:24.227Z,28.32
2023-05-10T01:58:24.259Z,29.83
2023-05-10T01:59:24.289Z,27.82
2023-05-10T02:00:24.220Z,26.88
2023-05-10T02:01:24.295Z,25.93
2023-05-10T02:02:24.206Z,25.16
2023-05-10T02:03:24.221Z,26.55
2023-05-10T02:04:24.233Z,25.55
2023-05-10T02:05:24.228Z,26.78
2023-05-10T02:06:24.198Z,28.19
2023-05-10T02:07:24.184Z,27.28
2023-05-10T02:08:24.178Z,29.44
2023-05-10T02:09:24.145Z,27.16
2023-05-10T02:10:24.201Z,28.52
2023-05-10T02:11:24.143Z,25.82
2023-05-10T02:12:24.119Z,26.16
2023-05-10T02:13:24.292Z,28.92
2023-05-10T02:14:24.139Z,30.03
2023-05-10T02:15:24.121Z,26.32
2023-05-10T02:16:24.151Z,27.67
2023-05-10T02:17:24.137Z,26.33
2023-05-10T02:18:24.120Z,28.14
2023-05-10T02:19:24.112Z,30.13
2023-05-10T02:20:24.066Z,27.71
2023-05-10T02:21:24.134Z,27.73
2023-05-10T02:22:24.050Z,30.64
2023-05-10T02:23:24.065Z,28.57
2023-05-10T02:24:24.051Z,28.93
2023-05-10T02:25:24.060Z,29.22
2023-05-10T02:26:24.057Z,28.03
2023-05-10T02:27:24.021Z,26.32
2023-05-10T02:28:24.001Z,29.04
2023-05-10T02:29:24.002Z,27.87
2023-05-10T02:30:24.038Z,29.98
2023-05-10T02:31:24.022Z,30.26
2023-05-10T02:32:24.134Z,28.64
2023-05-10T02:33:23.975Z,29.28
2023-05-10T02:34:24.008Z,28.24
2023-05-10T02:35:23.987Z,27.51
2023-05-10T02:36:24.015Z,29.06
2023-05-10T02:37:24.038Z,27.89
2023-05-10T02:38:24.049Z,27.82
2023-05-10T02:39:24.087Z,28.26
2023-05-10T02:40:24.403Z,28.02
2023-05-10T02:41:24.117Z,30.26
2023-05-10T02:42:24.146Z,28.54
2023-05-10T02:43:24.203Z,29.31
2023-05-10T02:44:24.220Z,28.29
2023-05-10T02:45:24.245Z,30.04
2023-05-10T02:46:24.315Z,26.52
2023-05-10T02:47:24.304Z,27.27
2023-05-10T02:48:24.302Z,26.30
2023-05-10T02:49:24.349Z,28.21
2023-05-10T02:50:24.396Z,29.01
2023-05-10T02:51:24.374Z,26.71
2023-05-10T02:52:24.415Z,27.13
2023-05-10T02:53:24.450Z,31.60
2023-05-10T02:54:24.475Z,28.69
2023-05-10T02:55:24.478Z,26.45
2023-05-10T02:56:24.492Z,30.09
2023-05-10T02:57:24.530Z,26.93
2023-05-10T02:58:24.569Z,27.80
2023-05-10T02:59:24.587Z,26.04
2023-05-10T03:00:24.593Z,26.08
2023-05-10T03:01:24.701Z,27.54
2023-05-10T03:02:24.684Z,29.07
2023-05-10T03:03:24.676Z,30.68
2023-05-10T03:04:24.742Z,27.25
2023-05-10T03:05:24.746Z,28.19
2023-05-10T03:06:24.746Z,27.38
2023-05-10T03:07:24.817Z,26.97
2023-05-10T03:08:24.815Z,28.13
2023-05-10T03:09:24.844Z,27.58
2023-05-10T03:10:24.871Z,28.75
2023-05-10T03:11:24.887Z,28.44
2023-05-10T03:12:24.926Z,26.30
2023-05-10T03:13:25.090Z,27.81
2023-05-10T03:14:24.984Z,31.24
2023-05-10T03:15:24.989Z,27.14
2023-05-10T03:16:25.055Z,29.19
2023-05-10T03:17:25.135Z,29.80
2023-05-10T03:18:25.076Z,28.51
2023-05-10T03:19:25.192Z,31.27
2023-05-10T03:20:25.171Z,30.12
2023-05-10T03:21:25.180Z,27.68
2023-05-10T03:22:25.199Z,29.34
2023-05-10T03:23:25.238Z,28.26
2023-05-10T03:24:25.687Z,25.00
2023-05-10T03:25:25.296Z,27.94
2023-05-10T03:26:25.302Z,27.31
2023-05-10T03:27:25.348Z,29.82
2023-05-10T03:28:25.363Z,30.27
2023-05-10T03:29:25.380Z,29.58
2023-05-10T03:30:25.399Z,28.88
2023-05-10T03:31:25.474Z,28.36
2023-05-10T03:32:25.506Z,26.20
2023-05-10T03:33:25.497Z,27.74
2023-05-10T03:34:25.532Z,28.30
2023-05-10T03:35:25.549Z,28.73
2023-05-10T03:36:25.586Z,28.36
2023-05-10T03:37:25.580Z,29.68
2023-05-10T03:38:25.639Z,29.48
2023-05-10T03:39:25.673Z,30.83
2023-05-10T03:40:25.685Z,25.00
2023-05-10T03:41:25.708Z,29.40
2023-05-10T03:42:25.727Z,27.94
2023-05-10T03:43:25.749Z,29.51
2023-05-10T03:44:25.792Z,25.00
2023-05-10T03:45:25.819Z,29.37
2023-05-10T03:46:25.917Z,29.70
2023-05-10T03:47:25.888Z,29.07
2023-05-10T03:48:25.890Z,29.45
2023-05-10T03:49:25.955Z,27.01
2023-05-10T03:50:25.988Z,31.13
2023-05-10T03:51:25.986Z,29.98
2023-05-10T03:52:26.009Z,29.06
2023-05-10T03:53:26.028Z,30.61
2023-05-10T03:54:26.085Z,28.68
2023-05-10T03:55:26.122Z,30.43
2023-05-10T03:56:26.241Z,29.94
2023-05-10T03:57:26.171Z,30.01
2023-05-10T03:58:26.196Z,27.31
2023-05-10T03:59:26.232Z,31.97
2023-05-10T04:00:26.243Z,28.43
2023-05-10T04:01:26.252Z,30.77
2023-05-10T04:02:26.571Z,27.94
2023-05-10T04:03:26.414Z,29.80
2023-05-10T04:04:26.356Z,29.50
2023-05-10T04:05:26.395Z,25.24
2023-05-10T04:06:26.531Z,29.36
2023-05-10T04:07:26.447Z,28.26
2023-05-10T04:08:26.485Z,31.23
2023-05-10T04:09:26.476Z,27.04
2023-05-10T04:10:26.524Z,27.16
2023-05-10T04:11:26.530Z,28.20
2023-05-10T04:12:26.551Z,27.46
2023-05-10T04:13:26.702Z,29.98
2023-05-10T04:14:26.615Z,28.31
2023-05-10T04:15:26.639Z,27.09
2023-05-10T04:16:26.695Z,28.88
2023-05-10T04:17:26.724Z,28.30
2023-05-10T04:18:26.725Z,29.41
2023-05-10T04:19:26.777Z,27.75
2023-05-10T04:20:26.795Z,26.13
2023-05-10T04:21:26.819Z,30.17
2023-05-10T04:22:26.891Z,25.66
2023-05-10T04:23:26.901Z,30.53
2023-05-10T04:24:26.933Z,29.55
2023-05-10T04:25:26.947Z,29.97
2023-05-10T04:26:26.964Z,29.97
2023-05-10T04:27:27.036Z,28.88
2023-05-10T04:28:27.024Z,30.26
2023-05-10T04:29:27.076Z,28.21
2023-05-10T04:30:27.079Z,32.60
2023-05-10T04:31:27.168Z,29.46
2023-05-10T04:32:27.201Z,29.08
2023-05-10T04:33:27.165Z,28.27
2023-05-10T04:34:27.215Z,27.42
2023-05-10T04:35:27.274Z,28.11
2023-05-10T04:36:27.249Z,26.23
2023-05-10T04:37:27.294Z,25.30
2023-05-10T04:38:27.337Z,25.52
2023-05-10T04:39:27.352Z,27.48
2023-05-10T04:40:27.373Z,31.81
2023-05-10T04:41:27.410Z,28.89
2023-05-10T04:42:27.474Z,27.30
2023-05-10T04:43:27.475Z,29.89
2023-05-10T04:44:27.540Z,26.88
2023-05-10T04:45:27.573Z,27.21
2023-05-10T04:46:27.650Z,30.02
2023-05-10T04:47:27.644Z,27.14
2023-05-10T04:48:27.657Z,26.45
2023-05-10T04:49:29.230Z,29.30
2023-05-10T04:50:27.718Z,28.79
2023-05-10T04:51:27.827Z,29.52
2023-05-10T04:52:27.797Z,29.68
2023-05-10T04:53:27.820Z,32.80
2023-05-10T04:54:27.898Z,30.50
2023-05-10T04:55:27.900Z,31.81
2023-05-10T04:56:27.915Z,29.74
2023-05-10T04:57:27.975Z,32.33
2023-05-10T04:58:28.010Z,26.52
2023-05-10T04:59:28.702Z,29.60
2023-05-10T05:00:28.060Z,29.41
2023-05-10T05:01:28.198Z,28.60
2023-05-10T05:02:28.237Z,29.19
2023-05-10T05:03:28.358Z,30.44
2023-05-10T05:04:28.226Z,27.44
2023-05-10T05:05:28.275Z,27.44
2023-05-10T05:06:28.415Z,31.11
2023-05-10T05:07:28.367Z,31.94
2023-05-10T05:08:28.395Z,30.28
2023-05-10T05:09:28.461Z,27.94
2023-05-10T05:10:28.468Z,27.27
2023-05-10T05:11:28.493Z,30.35
2023-05-10T05:12:28.561Z,29.27
2023-05-10T05:13:28.643Z,32.05
2023-05-10T05:14:28.622Z,27.45
2023-05-10T05:15:28.673Z,28.29
2023-05-10T05:16:28.736Z,29.04
2023-05-10T05:17:28.805Z,28.20
2023-05-10T05:18:28.776Z,32.32
2023-05-10T05:19:28.797Z,28.85
2023-05-10T05:20:28.848Z,31.63
2023-05-10T05:21:28.871Z,29.24
2023-05-10T05:22:28.977Z,30.27
2023-05-10T05:23:28.941Z,27.30
2023-05-10T05:24:28.988Z,29.01
2023-05-10T05:25:29.189Z,29.72
2023-05-10T05:26:29.189Z,29.27
2023-05-10T05:27:29.155Z,31.14
2023-05-10T05:28:29.162Z,26.99
2023-05-10T05:29:29.205Z,29.34
2023-05-10T05:30:29.293Z,29.35
2023-05-10T05:31:29.329Z,30.39
2023-05-10T05:32:29.420Z,27.83
2023-05-10T05:33:29.365Z,30.86
2023-05-10T05:34:29.442Z,26.12
2023-05-10T05:35:29.499Z,21.71
2023-05-10T05:36:29.521Z,27.47
2023-05-10T05:37:29.555Z,31.55
2023-05-10T05:38:29.595Z,23.47
2023-05-10T05:39:30.269Z,0.00
2023-05-10T05:40:29.805Z,16.88
2023-05-10T05:41:29.673Z,22.64
2023-05-10T05:42:29.862Z,11.61
2023-05-10T05:43:29.800Z,27.98
2023-05-10T05:44:29.977Z,41.91
2023-05-10T05:45:29.991Z,74.27
2023-05-10T05:46:29.948Z,74.62
2023-05-10T05:47:30.085Z,68.04
2023-05-10T05:48:30.092Z,61.65
2023-05-10T05:49:30.123Z,68.46
2023-05-10T05:50:30.196Z,73.61
2023-05-10T05:51:30.214Z,67.05
2023-05-10T05:52:30.352Z,66.79
2023-05-10T05:53:30.318Z,74.72
2023-05-10T05:54:30.403Z,71.01
2023-05-10T05:55:30.433Z,78.62
2023-05-10T05:56:30.493Z,71.87
2023-05-10T05:57:30.537Z,65.10
2023-05-10T05:58:30.673Z,66.52
2023-05-10T05:59:30.686Z,58.71
2023-05-10T06:00:30.733Z,38.23
2023-05-10T06:01:30.826Z,30.38
2023-05-10T06:02:30.930Z,38.03
2023-05-10T06:03:31.055Z,30.91
2023-05-10T06:04:31.254Z,26.39
2023-05-10T06:05:31.099Z,29.26
2023-05-10T06:06:31.176Z,39.77
2023-05-10T06:07:31.230Z,33.99
2023-05-10T06:08:31.232Z,42.94
2023-05-10T06:09:31.301Z,47.52
2023-05-10T06:10:31.376Z,50.49
2023-05-10T06:11:31.465Z,49.70
2023-05-10T06:12:31.510Z,52.22
2023-05-10T06:13:31.663Z,60.93
2023-05-10T06:14:31.671Z,63.40
2023-05-10T06:15:31.686Z,71.99
2023-05-10T06:16:31.761Z,73.12
2023-05-10T06:17:31.974Z,80.69
2023-05-10T06:18:31.835Z,86.61
2023-05-10T06:19:31.907Z,79.98
2023-05-10T06:20:32.104Z,97.01
2023-05-10T06:21:32.727Z,100.10
2023-05-10T06:22:32.059Z,106.42
2023-05-10T06:23:32.199Z,114.99
2023-05-10T06:24:32.131Z,124.93
2023-05-10T06:25:32.150Z,128.49
2023-05-10T06:26:32.181Z,135.06
2023-05-10T06:27:32.194Z,144.07
2023-05-10T06:28:32.282Z,152.73
2023-05-10T06:29:32.302Z,158.45
2023-05-10T06:30:32.306Z,160.80
2023-05-10T06:31:32.332Z,166.60
2023-05-10T06:32:32.375Z,169.52
2023-05-10T06:33:32.289Z,175.70
2023-05-10T06:34:32.277Z,181.35
2023-05-10T06:35:32.294Z,185.90
2023-05-10T06:36:32.289Z,188.95
2023-05-10T06:37:32.334Z,189.78
2023-05-10T06:38:32.373Z,187.00
2023-05-10T06:39:32.754Z,204.57
2023-05-10T06:40:32.369Z,205.10
2023-05-10T06:41:32.389Z,208.53
2023-05-10T06:42:32.574Z,200.22
2023-05-10T06:43:32.506Z,195.83
2023-05-10T06:44:32.777Z,204.90
2023-05-10T06:45:32.621Z,208.53
2023-05-10T06:46:32.751Z,209.71
2023-05-10T06:47:32.781Z,207.16
2023-05-10T06:48:32.797Z,214.61
2023-05-10T06:49:33.272Z,209.12
2023-05-10T06:50:32.935Z,215.40
2023-05-10T06:51:33.001Z,211.29
2023-05-10T06:52:33.109Z,216.09
2023-05-10T06:53:33.067Z,211.16
2023-05-10T06:54:33.469Z,216.50
2023-05-10T06:55:33.183Z,215.02
2023-05-10T06:56:33.231Z,218.07
2023-05-10T06:57:33.277Z,220.47
2023-05-10T06:58:33.326Z,219.32
2023-05-10T06:59:34.971Z,222.38
2023-05-10T07:00:33.485Z,227.19
2023-05-10T07:01:33.546Z,229.65
2023-05-10T07:02:33.680Z,240.82
2023-05-10T07:03:33.605Z,248.82
2023-05-10T07:04:33.697Z,247.56
2023-05-10T07:05:33.785Z,242.16
2023-05-10T07:06:34.113Z,238.25
2023-05-10T07:07:33.813Z,237.61
2023-05-10T07:08:33.875Z,231.98
2023-05-10T07:09:33.962Z,235.90
2023-05-10T07:10:33.992Z,239.16
2023-05-10T07:11:34.048Z,242.46
2023-05-10T07:12:34.175Z,242.53
2023-05-10T07:13:34.214Z,250.00
2023-05-10T07:14:34.246Z,246.60
2023-05-10T07:15:34.259Z,247.21
2023-05-10T07:16:34.433Z,250.00
2023-05-10T07:17:34.469Z,246.91
2023-05-10T07:18:34.405Z,246.99
2023-05-10T07:19:34.435Z,248.17
2023-05-10T07:20:34.479Z,249.40
2023-05-10T07:21:34.581Z,246.30
2023-05-10T07:22:34.602Z,248.51
2023-05-10T07:23:34.595Z,247.49
2023-05-10T07:24:36.299Z,247.47
2023-05-10T07:25:34.760Z,250.00
2023-05-10T07:26:34.720Z,246.99
2023-05-10T07:27:34.734Z,247.74
2023-05-10T07:28:34.817Z,247.48
2023-05-10T07:29:34.784Z,246.51
2023-05-10T07:30:34.813Z,243.38
2023-05-10T07:31:34.876Z,242.07
2023-05-10T07:32:35.339Z,243.98
2023-05-10T07:33:34.913Z,245.75
2023-05-10T07:34:35.286Z,248.95
2023-05-10T07:35:34.938Z,245.46
2023-05-10T07:36:34.953Z,246.96
2023-05-10T07:37:34.951Z,245.12
2023-05-10T07:38:34.973Z,233.12
2023-05-10T07:39:35.044Z,221.00
2023-05-10T07:40:35.765Z,211.81
2023-05-10T07:41:35.826Z,202.50
2023-05-10T07:42:35.107Z,196.08
2023-05-10T07:43:35.169Z,191.47
2023-05-10T07:44:35.177Z,186.36
2023-05-10T07:45:35.230Z,183.99
2023-05-10T07:46:35.251Z,177.57
2023-05-10T07:47:35.335Z,167.18
2023-05-10T07:48:35.478Z,159.11
2023-05-10T07:49:35.387Z,153.47
2023-05-10T07:50:35.428Z,148.83
2023-05-10T07:51:35.468Z,143.21
2023-05-10T07:52:35.514Z,145.77
2023-05-10T07:53:35.584Z,149.80
2023-05-10T07:54:35.776Z,157.11
2023-05-10T07:55:35.638Z,165.08
2023-05-10T07:56:35.686Z,174.17
2023-05-10T07:57:35.717Z,180.22
2023-05-10T07:58:35.802Z,189.44
2023-05-10T07:59:35.854Z,194.59
2023-05-10T08:00:35.824Z,201.79
2023-05-10T08:01:35.819Z,199.48
2023-05-10T08:02:35.915Z,202.06
2023-05-10T08:03:35.914Z,200.36
2023-05-10T08:04:36.073Z,208.01
2023-05-10T08:05:35.932Z,201.56
2023-05-10T08:06:35.896Z,212.13
2023-05-10T08:07:35.964Z,207.77
2023-05-10T08:08:35.931Z,217.27
2023-05-10T08:09:35.978Z,225.11
2023-05-10T08:10:35.994Z,222.75
2023-05-10T08:11:35.998Z,221.86
2023-05-10T08:12:36.001Z,227.65
2023-05-10T08:13:36.003Z,230.94
2023-05-10T08:14:36.016Z,235.40
2023-05-10T08:15:36.136Z,237.35
2023-05-10T08:16:36.029Z,240.25
2023-05-10T08:17:36.065Z,241.28
2023-05-10T08:18:36.109Z,239.59
2023-05-10T08:19:36.079Z,244.60
2023-05-10T08:20:36.050Z,243.94
2023-05-10T08:21:36.054Z,245.67
2023-05-10T08:22:36.071Z,247.69
2023-05-10T08:23:36.055Z,249.93
2023-05-10T08:24:36.052Z,249.04
2023-05-10T08:25:36.092Z,249.93
2023-05-10T08:26:36.078Z,247.80
2023-05-10T08:27:36.068Z,249.71
2023-05-10T08:28:36.069Z,250.00
2023-05-10T08:29:48.832Z,239.87
2023-05-10T08:30:37.072Z,240.04
2023-05-10T08:31:36.103Z,240.39
2023-05-10T08:32:36.069Z,242.57
2023-05-10T08:33:36.047Z,246.79
2023-05-10T08:34:36.028Z,245.12
2023-05-10T08:35:36.055Z,248.24
2023-05-10T08:36:36.044Z,244.09
2023-05-10T08:37:36.027Z,238.40
2023-05-10T08:38:36.012Z,241.46
2023-05-10T08:39:35.983Z,244.84
2023-05-10T08:40:35.996Z,242.92
2023-05-10T08:41:35.986Z,247.02
2023-05-10T08:42:35.973Z,249.53
2023-05-10T08:43:36.005Z,246.79
2023-05-10T08:44:35.965Z,249.77
2023-05-10T08:45:36.337Z,248.89
2023-05-10T08:46:36.051Z,248.94
2023-05-10T08:47:36.115Z,247.85
2023-05-10T08:48:36.152Z,248.27
2023-05-10T08:49:36.157Z,239.51
2023-05-10T08:50:36.342Z,223.80
2023-05-10T08:51:36.141Z,218.05
2023-05-10T08:52:36.152Z,199.44
2023-05-10T08:53:36.144Z,191.23
2023-05-10T08:54:36.148Z,179.46
2023-05-10T08:55:36.186Z,173.05
2023-05-10T08:56:36.178Z,167.86
2023-05-10T08:57:36.201Z,160.83
2023-05-10T08:58:36.250Z,151.02
2023-05-10T08:59:36.284Z,144.30
2023-05-10T09:00:36.319Z,135.64
2023-05-10T09:01:36.346Z,132.34
2023-05-10T09:02:36.433Z,124.90
2023-05-10T09:03:36.499Z,117.16
2023-05-10T09:04:36.549Z,114.49
2023-05-10T09:05:36.569Z,113.19
2023-05-10T09:06:36.580Z,107.46
2023-05-10T09:07:36.655Z,96.89
2023-05-10T09:08:36.718Z,93.28
2023-05-10T09:09:36.821Z,93.79
2023-05-10T09:10:36.802Z,88.28
2023-05-10T09:11:36.878Z,85.98
2023-05-10T09:12:36.954Z,84.55
2023-05-10T09:13:37.091Z,80.77
2023-05-10T09:14:37.095Z,81.56
2023-05-10T09:15:37.156Z,80.52
2023-05-10T09:16:37.187Z,80.01
2023-05-10T09:17:37.256Z,78.73
2023-05-10T09:18:37.325Z,78.29
2023-05-10T09:19:37.347Z,76.35
2023-05-10T09:20:37.514Z,73.63
2023-05-10T09:21:37.467Z,102.54
2023-05-10T09:22:37.526Z,122.37
2023-05-10T09:23:37.601Z,128.50
2023-05-10T09:24:37.831Z,135.94
2023-05-10T09:25:37.731Z,145.42
2023-05-10T09:26:37.767Z,152.59
2023-05-10T09:27:37.817Z,150.09
2023-05-10T09:28:37.860Z,152.69
2023-05-10T09:29:37.900Z,160.09
2023-05-10T09:30:37.954Z,176.69
2023-05-10T09:31:37.965Z,172.96
2023-05-10T09:32:38.079Z,172.73
2023-05-10T09:33:38.014Z,183.65
2023-05-10T09:34:38.078Z,187.44
2023-05-10T09:35:38.086Z,188.59
2023-05-10T09:36:38.134Z,197.31
2023-05-10T09:37:38.121Z,208.68
2023-05-10T09:38:38.123Z,218.33
2023-05-10T09:39:38.120Z,228.67
2023-05-10T09:40:38.168Z,235.10
2023-05-10T09:41:38.156Z,239.20
2023-05-10T09:42:38.163Z,241.12
2023-05-10T09:43:38.228Z,240.80
2023-05-10T09:44:38.303Z,237.80
2023-05-10T09:45:39.145Z,235.44
2023-05-10T09:46:38.268Z,233.99
2023-05-10T09:47:38.240Z,232.64
2023-05-10T09:48:38.273Z,219.98
2023-05-10T09:49:38.237Z,221.88
2023-05-10T09:50:38.334Z,216.51
2023-05-10T09:51:38.229Z,208.99
2023-05-10T09:52:38.219Z,203.16
2023-05-10T09:53:38.231Z,200.41
2023-05-10T09:54:38.262Z,202.68
2023-05-10T09:55:38.255Z,199.17
2023-05-10T09:56:38.281Z,201.49
2023-05-10T09:57:38.248Z,206.65
2023-05-10T09:58:38.257Z,201.47
2023-05-10T09:59:38.242Z,201.28
2023-05-10T10:00:38.292Z,201.96
2023-05-10T10:01:38.323Z,203.02
2023-05-10T10:02:38.331Z,207.10
2023-05-10T10:03:38.261Z,201.34
2023-05-10T10:04:38.861Z,198.69
2023-05-10T10:05:38.265Z,197.34
2023-05-10T10:06:38.259Z,201.03
2023-05-10T10:07:38.255Z,198.30
2023-05-10T10:08:38.273Z,196.87
2023-05-10T10:09:38.278Z,199.71
2023-05-10T10:10:38.354Z,198.51
2023-05-10T10:11:38.270Z,185.93
2023-05-10T10:12:38.297Z,137.23
2023-05-10T10:13:38.289Z,119.04
2023-05-10T10:14:38.319Z,133.69
2023-05-10T10:15:38.373Z,154.59
2023-05-10T10:16:45.833Z,166.64
2023-05-10T10:17:39.379Z,167.17
2023-05-10T10:18:38.366Z,169.66
2023-05-10T10:19:38.488Z,175.61
2023-05-10T10:20:38.444Z,184.27
2023-05-10T10:21:38.352Z,190.89
2023-05-10T10:22:38.305Z,173.15
2023-05-10T10:23:38.353Z,133.11
2023-05-10T10:24:38.297Z,132.18
2023-05-10T10:25:38.315Z,135.58
2023-05-10T10:26:38.375Z,128.08
2023-05-10T10:27:38.273Z,144.47
2023-05-10T10:28:38.272Z,165.89
2023-05-10T10:29:38.297Z,182.18
2023-05-10T10:30:38.328Z,189.12
2023-05-10T10:31:38.268Z,195.40
2023-05-10T10:32:38.311Z,195.53
2023-05-10T10:33:38.252Z,195.22
2023-05-10T10:34:38.235Z,198.60
2023-05-10T10:35:38.314Z,201.39
2023-05-10T10:36:38.229Z,200.12
2023-05-10T10:37:38.214Z,196.88
2023-05-10T10:38:38.201Z,195.98
2023-05-10T10:39:38.864Z,191.88
2023-05-10T10:40:38.219Z,189.85
2023-05-10T10:41:38.251Z,185.04
2023-05-10T10:42:38.252Z,178.33
2023-05-10T10:43:38.265Z,175.16
2023-05-10T10:44:38.296Z,168.54
2023-05-10T10:45:38.871Z,167.08
2023-05-10T10:46:38.387Z,163.77
2023-05-10T10:47:38.406Z,165.34
2023-05-10T10:48:38.371Z,163.97
2023-05-10T10:49:38.407Z,159.65
2023-05-10T10:50:38.445Z,157.06
2023-05-10T10:51:38.486Z,155.69
2023-05-10T10:52:38.482Z,154.64
2023-05-10T10:53:38.522Z,152.98
2023-05-10T10:54:38.551Z,156.49
2023-05-10T10:55:38.559Z,154.43
2023-05-10T10:56:38.724Z,157.81
2023-05-10T10:57:38.641Z,156.30
2023-05-10T10:58:38.675Z,160.30
2023-05-10T10:59:38.734Z,157.27
2023-05-10T11:00:38.818Z,156.74
2023-05-10T11:01:38.897Z,156.18
2023-05-10T11:02:38.868Z,157.82
2023-05-10T11:03:38.872Z,159.42
2023-05-10T11:04:38.915Z,158.36
2023-05-10T11:05:38.940Z,159.16
2023-05-10T11:06:38.975Z,157.61
2023-05-10T11:07:39.045Z,156.84
2023-05-10T11:08:39.046Z,157.80
2023-05-10T11:09:39.083Z,155.51
2023-05-10T11:10:39.136Z,156.61
2023-05-10T11:11:39.295Z,155.68
2023-05-10T11:12:39.173Z,154.86
2023-05-10T11:13:39.231Z,153.18
2023-05-10T11:14:39.274Z,150.65
2023-05-10T11:15:39.333Z,149.15
2023-05-10T11:16:39.343Z,145.76
2023-05-10T11:17:39.387Z,146.75
2023-05-10T11:18:39.397Z,147.88
2023-05-10T11:19:39.410Z,146.83
2023-05-10T11:20:39.444Z,147.79
2023-05-10T11:21:39.498Z,146.75
2023-05-10T11:22:39.519Z,150.66
2023-05-10T11:23:39.566Z,155.86
2023-05-10T11:24:39.625Z,153.74
2023-05-10T11:25:39.633Z,155.51
2023-05-10T11:26:39.680Z,156.26
2023-05-10T11:27:39.724Z,155.88
2023-05-10T11:28:39.731Z,154.41
2023-05-10T11:29:39.810Z,149.87
2023-05-10T11:30:39.838Z,149.01
2023-05-10T11:31:39.861Z,145.40
2023-05-10T11:32:39.919Z,147.13
2023-05-10T11:33:39.935Z,142.04
2023-05-10T11:34:40.010Z,142.27
2023-05-10T11:35:43.034Z,144.31
2023-05-10T11:36:40.089Z,145.46
2023-05-10T11:37:40.029Z,142.18
2023-05-10T11:38:40.020Z,138.16
2023-05-10T11:39:40.002Z,140.37
2023-05-10T11:40:39.990Z,137.57
2023-05-10T11:41:41.044Z,135.73
2023-05-10T11:42:39.981Z,135.81
2023-05-10T11:43:40.010Z,135.99
2023-05-10T11:44:39.958Z,129.74
2023-05-10T11:45:39.990Z,125.00
2023-05-10T11:46:39.986Z,128.15
2023-05-10T11:47:42.079Z,126.81
2023-05-10T11:48:39.968Z,126.34
2023-05-10T11:49:39.917Z,124.47
2023-05-10T11:50:39.928Z,125.32
2023-05-10T11:51:39.913Z,117.65
2023-05-10T11:52:39.960Z,113.20
2023-05-10T11:53:39.923Z,112.46
2023-05-10T11:54:39.909Z,109.83
2023-05-10T11:55:39.879Z,108.22
2023-05-10T11:56:39.914Z,114.10
2023-05-10T11:57:39.873Z,116.01
2023-05-10T11:58:39.877Z,115.20
2023-05-10T11:59:42.479Z,114.26
2023-05-10T12:00:39.846Z,114.43
2023-05-10T12:01:39.853Z,114.94
2023-05-10T12:02:39.904Z,114.87
2023-05-10T12:03:39.927Z,111.39
2023-05-10T12:04:39.840Z,108.23
2023-05-10T12:05:42.232Z,104.28
2023-05-10T12:06:39.838Z,104.35
2023-05-10T12:07:39.825Z,91.87
2023-05-10T12:08:39.790Z,88.01
2023-05-10T12:09:44.046Z,83.01
2023-05-10T12:10:39.798Z,85.36
2023-05-10T12:11:42.530Z,75.73
2023-05-10T12:12:39.777Z,74.55
2023-05-10T12:13:39.756Z,59.65
2023-05-10T12:14:39.747Z,53.36
2023-05-10T12:15:39.741Z,48.52
2023-05-10T12:16:39.782Z,40.87
2023-05-10T12:17:41.344Z,35.68
2023-05-10T12:18:39.751Z,34.46
2023-05-10T12:19:39.724Z,26.63
2023-05-10T12:20:39.729Z,24.80
2023-05-10T12:21:39.820Z,18.97
2023-05-10T12:22:39.691Z,15.39
2023-05-10T12:23:39.702Z,25.00
2023-05-10T12:24:39.691Z,28.21
2023-05-10T12:25:39.700Z,25.39
2023-05-10T12:26:39.720Z,25.50
2023-05-10T12:27:39.660Z,26.00
2023-05-10T12:28:39.684Z,25.63
2023-05-10T12:29:41.038Z,29.87
2023-05-10T12:30:39.666Z,26.12
2023-05-10T12:31:39.660Z,25.91
2023-05-10T12:32:39.675Z,18.94
2023-05-10T12:33:39.619Z,11.88
2023-05-10T12:34:40.421Z,11.12
2023-05-10T12:35:41.157Z,25.00
2023-05-10T12:36:39.639Z,25.02
2023-05-10T12:37:39.590Z,23.04
2023-05-10T12:38:39.608Z,19.40
2023-05-10T12:39:39.598Z,16.96
2023-05-10T12:40:39.629Z,15.72
2023-05-10T12:41:41.485Z,25.67
2023-05-10T12:42:39.598Z,25.74
2023-05-10T12:43:39.563Z,25.75
2023-05-10T12:44:39.573Z,24.93
2023-05-10T12:45:39.601Z,26.45
2023-05-10T12:46:39.596Z,23.10
2023-05-10T12:47:42.281Z,27.59
2023-05-10T12:48:39.560Z,26.80
2023-05-10T12:49:39.524Z,27.67
2023-05-10T12:50:39.553Z,22.51
2023-05-10T12:51:39.507Z,27.49